sensor_id;sensor_type;location;lat;lon;timestamp;P1;durP1;ratioP1;P2;durP2;ratioP2
45806;SDS011;31507;51.494;7.518;2022-07-24T00:01:46;8.02;;;4.85;;
45806;SDS011;31507;51.494;7.518;2022-07-24T00:04:12;7.10;;;5.45;;
45806;SDS011;31507;51.494;7.518;2022-07-24T00:06:37;7.05;;;5.53;;
45806;SDS011;31507;51.494;7.518;2022-07-24T00:09:03;5.90;;;4.95;;
45806;SDS011;31507;51.494;7.518;2022-07-24T00:11:30;6.15;;;5.55;;
45806;SDS011;31507;51.494;7.518;2022-07-24T00:13:56;9.00;;;5.20;;
45806;SDS011;31507;51.494;7.518;2022-07-24T00:16:22;5.50;;;5.00;;
45806;SDS011;31507;51.494;7.518;2022-07-24T00:18:48;8.85;;;5.20;;
45806;SDS011;31507;51.494;7.518;2022-07-24T00:21:13;7.10;;;5.32;;
45806;SDS011;31507;51.494;7.518;2022-07-24T00:23:39;9.90;;;4.93;;
45806;SDS011;31507;51.494;7.518;2022-07-24T00:26:05;6.13;;;3.97;;
45806;SDS011;31507;51.494;7.518;2022-07-24T00:28:30;7.50;;;4.07;;
45806;SDS011;31507;51.494;7.518;2022-07-24T00:30:56;6.50;;;3.10;;
45806;SDS011;31507;51.494;7.518;2022-07-24T00:33:22;5.88;;;3.30;;
45806;SDS011;31507;51.494;7.518;2022-07-24T00:35:48;5.70;;;3.85;;
45806;SDS011;31507;51.494;7.518;2022-07-24T00:38:13;6.97;;;3.55;;
45806;SDS011;31507;51.494;7.518;2022-07-24T00:40:39;7.10;;;3.40;;
45806;SDS011;31507;51.494;7.518;2022-07-24T00:43:05;5.50;;;4.25;;
45806;SDS011;31507;51.494;7.518;2022-07-24T00:45:30;6.35;;;4.22;;
45806;SDS011;31507;51.494;7.518;2022-07-24T00:47:56;9.50;;;3.92;;
45806;SDS011;31507;51.494;7.518;2022-07-24T00:50:22;6.45;;;3.80;;
45806;SDS011;31507;51.494;7.518;2022-07-24T00:52:48;6.05;;;3.85;;
45806;SDS011;31507;51.494;7.518;2022-07-24T00:55:14;7.90;;;5.32;;
45806;SDS011;31507;51.494;7.518;2022-07-24T00:57:40;6.18;;;4.07;;
45806;SDS011;31507;51.494;7.518;2022-07-24T01:00:09;7.35;;;4.60;;
45806;SDS011;31507;51.494;7.518;2022-07-24T01:02:38;7.68;;;5.38;;
45806;SDS011;31507;51.494;7.518;2022-07-24T01:05:04;8.05;;;5.60;;
45806;SDS011;31507;51.494;7.518;2022-07-24T01:07:30;10.30;;;6.30;;
45806;SDS011;31507;51.494;7.518;2022-07-24T01:09:56;10.68;;;6.07;;
45806;SDS011;31507;51.494;7.518;2022-07-24T01:12:22;10.40;;;6.32;;
45806;SDS011;31507;51.494;7.518;2022-07-24T01:14:48;10.73;;;5.72;;
45806;SDS011;31507;51.494;7.518;2022-07-24T01:17:14;13.02;;;7.47;;
45806;SDS011;31507;51.494;7.518;2022-07-24T01:19:39;13.15;;;7.78;;
45806;SDS011;31507;51.494;7.518;2022-07-24T01:22:05;16.05;;;8.90;;
45806;SDS011;31507;51.494;7.518;2022-07-24T01:24:31;20.25;;;10.55;;
45806;SDS011;31507;51.494;7.518;2022-07-24T01:26:57;26.73;;;13.65;;
45806;SDS011;31507;51.494;7.518;2022-07-24T01:29:22;24.90;;;14.07;;
45806;SDS011;31507;51.494;7.518;2022-07-24T01:31:48;31.30;;;16.08;;
45806;SDS011;31507;51.494;7.518;2022-07-24T01:34:14;37.25;;;16.25;;
45806;SDS011;31507;51.494;7.518;2022-07-24T01:36:40;29.77;;;16.17;;
45806;SDS011;31507;51.494;7.518;2022-07-24T01:39:05;28.48;;;15.68;;
45806;SDS011;31507;51.494;7.518;2022-07-24T01:41:31;35.28;;;15.98;;
45806;SDS011;31507;51.494;7.518;2022-07-24T01:43:57;28.25;;;15.73;;
45806;SDS011;31507;51.494;7.518;2022-07-24T01:46:22;31.10;;;14.52;;
45806;SDS011;31507;51.494;7.518;2022-07-24T01:48:48;27.60;;;15.27;;
45806;SDS011;31507;51.494;7.518;2022-07-24T01:51:14;29.58;;;15.85;;
45806;SDS011;31507;51.494;7.518;2022-07-24T01:53:39;37.67;;;16.40;;
45806;SDS011;31507;51.494;7.518;2022-07-24T01:56:05;29.77;;;15.32;;
45806;SDS011;31507;51.494;7.518;2022-07-24T01:58:31;28.67;;;14.65;;
45806;SDS011;31507;51.494;7.518;2022-07-24T02:00:57;27.70;;;15.57;;
45806;SDS011;31507;51.494;7.518;2022-07-24T02:03:22;25.73;;;14.02;;
45806;SDS011;31507;51.494;7.518;2022-07-24T02:05:48;33.70;;;14.98;;
45806;SDS011;31507;51.494;7.518;2022-07-24T02:08:14;23.63;;;13.20;;
45806;SDS011;31507;51.494;7.518;2022-07-24T02:10:39;29.10;;;13.70;;
45806;SDS011;31507;51.494;7.518;2022-07-24T02:13:05;24.83;;;12.75;;
45806;SDS011;31507;51.494;7.518;2022-07-24T02:15:31;26.08;;;13.10;;
45806;SDS011;31507;51.494;7.518;2022-07-24T02:17:58;21.58;;;11.75;;
45806;SDS011;31507;51.494;7.518;2022-07-24T02:20:25;22.88;;;12.73;;
45806;SDS011;31507;51.494;7.518;2022-07-24T02:22:52;16.98;;;10.25;;
45806;SDS011;31507;51.494;7.518;2022-07-24T02:25:18;22.13;;;11.50;;
45806;SDS011;31507;51.494;7.518;2022-07-24T02:27:44;18.20;;;10.95;;
45806;SDS011;31507;51.494;7.518;2022-07-24T02:30:12;21.70;;;10.82;;
45806;SDS011;31507;51.494;7.518;2022-07-24T02:32:39;19.83;;;10.15;;
45806;SDS011;31507;51.494;7.518;2022-07-24T02:35:05;19.73;;;9.70;;
45806;SDS011;31507;51.494;7.518;2022-07-24T02:37:31;19.50;;;9.48;;
45806;SDS011;31507;51.494;7.518;2022-07-24T02:39:57;13.52;;;8.48;;
45806;SDS011;31507;51.494;7.518;2022-07-24T02:42:22;18.58;;;9.25;;
45806;SDS011;31507;51.494;7.518;2022-07-24T02:44:48;16.73;;;9.15;;
45806;SDS011;31507;51.494;7.518;2022-07-24T02:47:14;18.52;;;8.82;;
45806;SDS011;31507;51.494;7.518;2022-07-24T02:49:39;13.85;;;8.40;;
45806;SDS011;31507;51.494;7.518;2022-07-24T02:52:05;11.43;;;8.18;;
45806;SDS011;31507;51.494;7.518;2022-07-24T02:54:31;13.82;;;7.38;;
45806;SDS011;31507;51.494;7.518;2022-07-24T02:56:56;11.38;;;7.22;;
45806;SDS011;31507;51.494;7.518;2022-07-24T02:59:22;10.35;;;7.13;;
45806;SDS011;31507;51.494;7.518;2022-07-24T03:01:48;13.40;;;7.47;;
45806;SDS011;31507;51.494;7.518;2022-07-24T03:04:13;12.70;;;7.47;;
45806;SDS011;31507;51.494;7.518;2022-07-24T03:06:39;13.48;;;7.15;;
45806;SDS011;31507;51.494;7.518;2022-07-24T03:09:05;10.65;;;6.65;;
45806;SDS011;31507;51.494;7.518;2022-07-24T03:11:30;10.43;;;7.13;;
45806;SDS011;31507;51.494;7.518;2022-07-24T03:13:56;10.50;;;6.38;;
45806;SDS011;31507;51.494;7.518;2022-07-24T03:16:22;11.07;;;6.72;;
45806;SDS011;31507;51.494;7.518;2022-07-24T03:18:48;10.98;;;6.25;;
45806;SDS011;31507;51.494;7.518;2022-07-24T03:21:14;6.38;;;5.72;;
45806;SDS011;31507;51.494;7.518;2022-07-24T03:23:41;8.77;;;5.50;;
45806;SDS011;31507;51.494;7.518;2022-07-24T03:26:07;9.73;;;5.65;;
45806;SDS011;31507;51.494;7.518;2022-07-24T03:28:32;7.65;;;5.93;;
45806;SDS011;31507;51.494;7.518;2022-07-24T03:30:58;8.45;;;6.05;;
45806;SDS011;31507;51.494;7.518;2022-07-24T03:33:25;6.10;;;4.93;;
45806;SDS011;31507;51.494;7.518;2022-07-24T03:35:52;8.68;;;5.57;;
45806;SDS011;31507;51.494;7.518;2022-07-24T03:38:17;9.35;;;5.57;;
45806;SDS011;31507;51.494;7.518;2022-07-24T03:40:43;6.07;;;4.63;;
45806;SDS011;31507;51.494;7.518;2022-07-24T03:43:09;5.93;;;5.20;;
45806;SDS011;31507;51.494;7.518;2022-07-24T03:45:34;7.07;;;5.30;;
45806;SDS011;31507;51.494;7.518;2022-07-24T03:48:00;6.30;;;5.10;;
45806;SDS011;31507;51.494;7.518;2022-07-24T03:50:26;8.35;;;5.38;;
45806;SDS011;31507;51.494;7.518;2022-07-24T03:52:51;9.23;;;5.35;;
45806;SDS011;31507;51.494;7.518;2022-07-24T03:55:17;10.10;;;5.25;;
45806;SDS011;31507;51.494;7.518;2022-07-24T03:57:43;6.88;;;5.20;;
45806;SDS011;31507;51.494;7.518;2022-07-24T04:00:09;7.53;;;4.90;;
45806;SDS011;31507;51.494;7.518;2022-07-24T04:02:35;8.23;;;5.22;;
45806;SDS011;31507;51.494;7.518;2022-07-24T04:05:00;7.53;;;5.30;;
45806;SDS011;31507;51.494;7.518;2022-07-24T04:07:27;8.70;;;5.40;;
45806;SDS011;31507;51.494;7.518;2022-07-24T04:09:53;5.97;;;4.90;;
45806;SDS011;31507;51.494;7.518;2022-07-24T04:12:18;7.03;;;5.07;;
45806;SDS011;31507;51.494;7.518;2022-07-24T04:14:45;5.93;;;4.93;;
45806;SDS011;31507;51.494;7.518;2022-07-24T04:17:11;5.20;;;4.63;;
45806;SDS011;31507;51.494;7.518;2022-07-24T04:19:36;8.25;;;5.40;;
45806;SDS011;31507;51.494;7.518;2022-07-24T04:22:02;9.80;;;4.57;;
45806;SDS011;31507;51.494;7.518;2022-07-24T04:24:28;6.90;;;5.00;;
45806;SDS011;31507;51.494;7.518;2022-07-24T04:26:53;9.27;;;5.15;;
45806;SDS011;31507;51.494;7.518;2022-07-24T04:29:19;7.03;;;4.28;;
45806;SDS011;31507;51.494;7.518;2022-07-24T04:31:45;7.90;;;4.35;;
45806;SDS011;31507;51.494;7.518;2022-07-24T04:34:10;5.10;;;4.20;;
45806;SDS011;31507;51.494;7.518;2022-07-24T04:36:36;7.15;;;4.32;;
45806;SDS011;31507;51.494;7.518;2022-07-24T04:39:02;5.28;;;3.85;;
45806;SDS011;31507;51.494;7.518;2022-07-24T04:41:28;10.93;;;4.18;;
45806;SDS011;31507;51.494;7.518;2022-07-24T04:43:54;5.25;;;3.80;;
45806;SDS011;31507;51.494;7.518;2022-07-24T04:46:20;7.95;;;4.40;;
45806;SDS011;31507;51.494;7.518;2022-07-24T04:48:47;7.10;;;4.03;;
45806;SDS011;31507;51.494;7.518;2022-07-24T04:51:12;6.50;;;3.97;;
45806;SDS011;31507;51.494;7.518;2022-07-24T04:53:38;5.50;;;3.63;;
45806;SDS011;31507;51.494;7.518;2022-07-24T04:56:04;5.53;;;3.90;;
45806;SDS011;31507;51.494;7.518;2022-07-24T04:58:30;5.53;;;3.65;;
45806;SDS011;31507;51.494;7.518;2022-07-24T05:00:55;5.60;;;3.42;;
45806;SDS011;31507;51.494;7.518;2022-07-24T05:03:21;6.13;;;3.63;;
45806;SDS011;31507;51.494;7.518;2022-07-24T05:05:47;6.90;;;3.55;;
45806;SDS011;31507;51.494;7.518;2022-07-24T05:08:12;5.10;;;3.83;;
45806;SDS011;31507;51.494;7.518;2022-07-24T05:10:38;6.47;;;3.63;;
45806;SDS011;31507;51.494;7.518;2022-07-24T05:13:04;6.88;;;3.70;;
45806;SDS011;31507;51.494;7.518;2022-07-24T05:15:30;5.18;;;3.30;;
45806;SDS011;31507;51.494;7.518;2022-07-24T05:17:55;3.63;;;3.33;;
45806;SDS011;31507;51.494;7.518;2022-07-24T05:20:21;4.78;;;3.58;;
45806;SDS011;31507;51.494;7.518;2022-07-24T05:22:48;4.63;;;3.17;;
45806;SDS011;31507;51.494;7.518;2022-07-24T05:25:14;5.20;;;3.60;;
45806;SDS011;31507;51.494;7.518;2022-07-24T05:27:39;4.40;;;3.47;;
45806;SDS011;31507;51.494;7.518;2022-07-24T05:30:05;3.70;;;3.33;;
45806;SDS011;31507;51.494;7.518;2022-07-24T05:32:31;4.57;;;3.20;;
45806;SDS011;31507;51.494;7.518;2022-07-24T05:34:57;6.15;;;3.40;;
45806;SDS011;31507;51.494;7.518;2022-07-24T05:37:23;6.95;;;3.53;;
45806;SDS011;31507;51.494;7.518;2022-07-24T05:39:48;3.60;;;2.70;;
45806;SDS011;31507;51.494;7.518;2022-07-24T05:42:14;3.55;;;3.05;;
45806;SDS011;31507;51.494;7.518;2022-07-24T05:44:40;3.45;;;3.00;;
45806;SDS011;31507;51.494;7.518;2022-07-24T05:47:05;3.50;;;2.83;;
45806;SDS011;31507;51.494;7.518;2022-07-24T05:49:31;9.90;;;3.40;;
45806;SDS011;31507;51.494;7.518;2022-07-24T05:51:57;3.08;;;2.78;;
45806;SDS011;31507;51.494;7.518;2022-07-24T05:54:22;4.25;;;3.30;;
45806;SDS011;31507;51.494;7.518;2022-07-24T05:56:48;4.15;;;2.70;;
45806;SDS011;31507;51.494;7.518;2022-07-24T05:59:14;4.60;;;2.83;;
45806;SDS011;31507;51.494;7.518;2022-07-24T06:01:39;4.57;;;2.83;;
45806;SDS011;31507;51.494;7.518;2022-07-24T06:04:06;6.22;;;3.17;;
45806;SDS011;31507;51.494;7.518;2022-07-24T06:06:32;3.63;;;2.67;;
45806;SDS011;31507;51.494;7.518;2022-07-24T06:08:58;3.13;;;2.85;;
45806;SDS011;31507;51.494;7.518;2022-07-24T06:11:23;5.35;;;2.60;;
45806;SDS011;31507;51.494;7.518;2022-07-24T06:13:49;3.67;;;2.55;;
45806;SDS011;31507;51.494;7.518;2022-07-24T06:16:15;2.80;;;2.30;;
45806;SDS011;31507;51.494;7.518;2022-07-24T06:18:41;4.32;;;2.80;;
45806;SDS011;31507;51.494;7.518;2022-07-24T06:21:06;4.47;;;2.60;;
45806;SDS011;31507;51.494;7.518;2022-07-24T06:23:32;3.15;;;2.70;;
45806;SDS011;31507;51.494;7.518;2022-07-24T06:25:58;3.65;;;2.60;;
45806;SDS011;31507;51.494;7.518;2022-07-24T06:28:24;6.53;;;3.05;;
45806;SDS011;31507;51.494;7.518;2022-07-24T06:30:50;7.97;;;2.47;;
45806;SDS011;31507;51.494;7.518;2022-07-24T06:33:16;8.23;;;2.70;;
45806;SDS011;31507;51.494;7.518;2022-07-24T06:35:41;6.88;;;2.55;;
45806;SDS011;31507;51.494;7.518;2022-07-24T06:38:07;3.78;;;2.35;;
45806;SDS011;31507;51.494;7.518;2022-07-24T06:40:34;5.93;;;2.47;;
45806;SDS011;31507;51.494;7.518;2022-07-24T06:43:01;4.53;;;2.50;;
45806;SDS011;31507;51.494;7.518;2022-07-24T06:45:27;2.40;;;2.20;;
45806;SDS011;31507;51.494;7.518;2022-07-24T06:47:56;3.42;;;2.30;;
45806;SDS011;31507;51.494;7.518;2022-07-24T06:50:21;2.30;;;2.10;;
45806;SDS011;31507;51.494;7.518;2022-07-24T06:52:47;6.43;;;2.60;;
45806;SDS011;31507;51.494;7.518;2022-07-24T06:55:13;4.03;;;2.28;;
45806;SDS011;31507;51.494;7.518;2022-07-24T06:57:38;3.67;;;2.67;;
45806;SDS011;31507;51.494;7.518;2022-07-24T07:00:05;3.70;;;2.40;;
45806;SDS011;31507;51.494;7.518;2022-07-24T07:02:33;3.13;;;2.20;;
45806;SDS011;31507;51.494;7.518;2022-07-24T07:04:58;4.65;;;2.25;;
45806;SDS011;31507;51.494;7.518;2022-07-24T07:07:24;3.53;;;2.40;;
45806;SDS011;31507;51.494;7.518;2022-07-24T07:09:50;4.93;;;2.40;;
45806;SDS011;31507;51.494;7.518;2022-07-24T07:12:15;6.50;;;2.72;;
45806;SDS011;31507;51.494;7.518;2022-07-24T07:14:41;4.18;;;2.40;;
45806;SDS011;31507;51.494;7.518;2022-07-24T07:17:07;2.83;;;2.15;;
45806;SDS011;31507;51.494;7.518;2022-07-24T07:19:32;4.57;;;2.20;;
45806;SDS011;31507;51.494;7.518;2022-07-24T07:21:58;2.75;;;2.30;;
45806;SDS011;31507;51.494;7.518;2022-07-24T07:24:24;3.25;;;2.35;;
45806;SDS011;31507;51.494;7.518;2022-07-24T07:26:50;3.08;;;2.38;;
45806;SDS011;31507;51.494;7.518;2022-07-24T07:29:16;4.25;;;2.70;;
45806;SDS011;31507;51.494;7.518;2022-07-24T07:31:41;4.15;;;2.38;;
45806;SDS011;31507;51.494;7.518;2022-07-24T07:34:07;3.15;;;2.08;;
45806;SDS011;31507;51.494;7.518;2022-07-24T07:36:33;3.78;;;2.33;;
45806;SDS011;31507;51.494;7.518;2022-07-24T07:38:59;7.85;;;2.63;;
45806;SDS011;31507;51.494;7.518;2022-07-24T07:41:25;3.78;;;2.53;;
45806;SDS011;31507;51.494;7.518;2022-07-24T07:43:51;2.85;;;2.13;;
45806;SDS011;31507;51.494;7.518;2022-07-24T07:46:16;3.92;;;2.55;;
45806;SDS011;31507;51.494;7.518;2022-07-24T07:48:43;2.50;;;2.30;;
45806;SDS011;31507;51.494;7.518;2022-07-24T07:51:08;2.55;;;2.20;;
45806;SDS011;31507;51.494;7.518;2022-07-24T07:53:34;3.75;;;2.30;;
45806;SDS011;31507;51.494;7.518;2022-07-24T07:56:00;2.45;;;2.20;;
45806;SDS011;31507;51.494;7.518;2022-07-24T07:58:26;6.13;;;2.35;;
45806;SDS011;31507;51.494;7.518;2022-07-24T08:00:52;4.10;;;2.22;;
45806;SDS011;31507;51.494;7.518;2022-07-24T08:03:18;2.55;;;2.25;;
45806;SDS011;31507;51.494;7.518;2022-07-24T08:05:44;2.67;;;2.20;;
45806;SDS011;31507;51.494;7.518;2022-07-24T08:08:10;8.80;;;2.55;;
45806;SDS011;31507;51.494;7.518;2022-07-24T08:10:36;5.05;;;2.50;;
45806;SDS011;31507;51.494;7.518;2022-07-24T08:13:03;4.07;;;2.33;;
45806;SDS011;31507;51.494;7.518;2022-07-24T08:15:28;7.75;;;2.63;;
45806;SDS011;31507;51.494;7.518;2022-07-24T08:17:55;5.22;;;2.10;;
45806;SDS011;31507;51.494;7.518;2022-07-24T08:20:22;3.42;;;2.45;;
45806;SDS011;31507;51.494;7.518;2022-07-24T08:22:48;3.15;;;2.70;;
45806;SDS011;31507;51.494;7.518;2022-07-24T08:25:14;2.55;;;2.25;;
45806;SDS011;31507;51.494;7.518;2022-07-24T08:27:41;3.22;;;2.33;;
45806;SDS011;31507;51.494;7.518;2022-07-24T08:30:08;4.65;;;2.45;;
45806;SDS011;31507;51.494;7.518;2022-07-24T08:32:35;3.88;;;2.58;;
45806;SDS011;31507;51.494;7.518;2022-07-24T08:35:00;3.33;;;2.53;;
45806;SDS011;31507;51.494;7.518;2022-07-24T08:37:26;4.28;;;2.67;;
45806;SDS011;31507;51.494;7.518;2022-07-24T08:39:52;2.67;;;2.22;;
45806;SDS011;31507;51.494;7.518;2022-07-24T08:42:19;5.15;;;2.50;;
45806;SDS011;31507;51.494;7.518;2022-07-24T08:44:46;7.00;;;2.70;;
45806;SDS011;31507;51.494;7.518;2022-07-24T08:47:12;3.92;;;2.80;;
45806;SDS011;31507;51.494;7.518;2022-07-24T08:49:40;3.08;;;2.50;;
45806;SDS011;31507;51.494;7.518;2022-07-24T08:52:06;4.85;;;2.40;;
45806;SDS011;31507;51.494;7.518;2022-07-24T08:54:33;3.63;;;2.42;;
45806;SDS011;31507;51.494;7.518;2022-07-24T08:57:01;6.43;;;2.50;;
45806;SDS011;31507;51.494;7.518;2022-07-24T08:59:27;3.17;;;2.88;;
45806;SDS011;31507;51.494;7.518;2022-07-24T09:01:53;4.53;;;2.92;;
45806;SDS011;31507;51.494;7.518;2022-07-24T09:07:07;4.78;;;3.25;;
45806;SDS011;31507;51.494;7.518;2022-07-24T09:09:36;5.82;;;3.13;;
45806;SDS011;31507;51.494;7.518;2022-07-24T09:12:09;5.25;;;3.20;;
45806;SDS011;31507;51.494;7.518;2022-07-24T09:14:42;6.95;;;3.28;;
45806;SDS011;31507;51.494;7.518;2022-07-24T09:17:10;7.00;;;2.92;;
45806;SDS011;31507;51.494;7.518;2022-07-24T09:19:54;4.18;;;2.65;;
45806;SDS011;31507;51.494;7.518;2022-07-24T09:27:30;8.27;;;2.97;;
45806;SDS011;31507;51.494;7.518;2022-07-24T09:29:56;4.07;;;2.97;;
45806;SDS011;31507;51.494;7.518;2022-07-24T09:32:22;3.72;;;3.10;;
45806;SDS011;31507;51.494;7.518;2022-07-24T09:34:50;4.30;;;3.13;;
45806;SDS011;31507;51.494;7.518;2022-07-24T09:37:17;4.22;;;2.40;;
45806;SDS011;31507;51.494;7.518;2022-07-24T09:39:44;3.97;;;2.88;;
45806;SDS011;31507;51.494;7.518;2022-07-24T09:42:10;6.85;;;2.90;;
45806;SDS011;31507;51.494;7.518;2022-07-24T09:44:37;5.18;;;3.03;;
45806;SDS011;31507;51.494;7.518;2022-07-24T09:49:31;4.82;;;2.80;;
45806;SDS011;31507;51.494;7.518;2022-07-24T09:54:36;3.10;;;2.78;;
45806;SDS011;31507;51.494;7.518;2022-07-24T09:59:57;5.70;;;2.83;;
45806;SDS011;31507;51.494;7.518;2022-07-24T10:02:30;5.80;;;2.63;;
45806;SDS011;31507;51.494;7.518;2022-07-24T10:04:58;3.50;;;2.75;;
45806;SDS011;31507;51.494;7.518;2022-07-24T10:07:27;5.78;;;3.10;;
45806;SDS011;31507;51.494;7.518;2022-07-24T10:09:57;4.30;;;3.05;;
45806;SDS011;31507;51.494;7.518;2022-07-24T10:12:24;3.65;;;2.47;;
45806;SDS011;31507;51.494;7.518;2022-07-24T10:14:52;7.90;;;2.95;;
45806;SDS011;31507;51.494;7.518;2022-07-24T10:17:21;3.50;;;2.72;;
45806;SDS011;31507;51.494;7.518;2022-07-24T10:19:57;11.05;;;2.70;;
45806;SDS011;31507;51.494;7.518;2022-07-24T10:22:28;3.78;;;2.80;;
45806;SDS011;31507;51.494;7.518;2022-07-24T10:25:10;3.55;;;2.75;;
45806;SDS011;31507;51.494;7.518;2022-07-24T10:27:40;5.63;;;2.95;;
45806;SDS011;31507;51.494;7.518;2022-07-24T10:30:09;2.85;;;2.60;;
45806;SDS011;31507;51.494;7.518;2022-07-24T10:32:36;5.80;;;2.92;;
45806;SDS011;31507;51.494;7.518;2022-07-24T10:35:13;2.75;;;2.45;;
45806;SDS011;31507;51.494;7.518;2022-07-24T10:37:41;6.20;;;2.97;;
45806;SDS011;31507;51.494;7.518;2022-07-24T10:40:22;3.15;;;2.67;;
45806;SDS011;31507;51.494;7.518;2022-07-24T10:43:07;5.30;;;2.90;;
45806;SDS011;31507;51.494;7.518;2022-07-24T10:45:38;3.53;;;2.67;;
45806;SDS011;31507;51.494;7.518;2022-07-24T10:58:56;5.40;;;3.20;;
45806;SDS011;31507;51.494;7.518;2022-07-24T11:04:04;3.97;;;2.70;;
45806;SDS011;31507;51.494;7.518;2022-07-24T11:06:51;5.25;;;2.85;;
45806;SDS011;31507;51.494;7.518;2022-07-24T11:09:20;5.10;;;2.85;;
45806;SDS011;31507;51.494;7.518;2022-07-24T11:14:17;5.30;;;3.00;;
45806;SDS011;31507;51.494;7.518;2022-07-24T11:16:49;3.80;;;3.33;;
45806;SDS011;31507;51.494;7.518;2022-07-24T11:21:44;3.53;;;2.75;;
45806;SDS011;31507;51.494;7.518;2022-07-24T11:29:20;2.70;;;2.50;;
45806;SDS011;31507;51.494;7.518;2022-07-24T11:31:56;11.30;;;2.60;;
45806;SDS011;31507;51.494;7.518;2022-07-24T11:34:25;6.28;;;3.40;;
45806;SDS011;31507;51.494;7.518;2022-07-24T11:36:54;3.95;;;2.92;;
45806;SDS011;31507;51.494;7.518;2022-07-24T11:39:26;3.33;;;2.75;;
45806;SDS011;31507;51.494;7.518;2022-07-24T11:41:55;4.40;;;3.17;;
45806;SDS011;31507;51.494;7.518;2022-07-24T11:44:30;6.75;;;2.88;;
45806;SDS011;31507;51.494;7.518;2022-07-24T11:47:10;4.88;;;3.15;;
45806;SDS011;31507;51.494;7.518;2022-07-24T11:49:46;4.03;;;3.05;;
45806;SDS011;31507;51.494;7.518;2022-07-24T11:54:55;4.45;;;3.03;;
45806;SDS011;31507;51.494;7.518;2022-07-24T11:57:22;7.78;;;3.17;;
45806;SDS011;31507;51.494;7.518;2022-07-24T11:59:53;4.60;;;2.78;;
45806;SDS011;31507;51.494;7.518;2022-07-24T12:02:20;4.32;;;3.65;;
45806;SDS011;31507;51.494;7.518;2022-07-24T12:04:47;3.70;;;3.17;;
45806;SDS011;31507;51.494;7.518;2022-07-24T12:07:15;3.08;;;2.50;;
45806;SDS011;31507;51.494;7.518;2022-07-24T12:09:55;5.57;;;2.70;;
45806;SDS011;31507;51.494;7.518;2022-07-24T12:14:53;3.67;;;2.40;;
45806;SDS011;31507;51.494;7.518;2022-07-24T12:17:26;2.78;;;2.58;;
45806;SDS011;31507;51.494;7.518;2022-07-24T12:19:53;3.70;;;2.65;;
45806;SDS011;31507;51.494;7.518;2022-07-24T12:22:21;2.88;;;2.55;;
45806;SDS011;31507;51.494;7.518;2022-07-24T12:24:48;2.67;;;2.47;;
45806;SDS011;31507;51.494;7.518;2022-07-24T12:30:22;2.67;;;2.40;;
45806;SDS011;31507;51.494;7.518;2022-07-24T12:32:54;4.47;;;2.88;;
45806;SDS011;31507;51.494;7.518;2022-07-24T12:35:22;2.85;;;2.55;;
45806;SDS011;31507;51.494;7.518;2022-07-24T12:37:49;3.58;;;2.65;;
45806;SDS011;31507;51.494;7.518;2022-07-24T12:43:10;2.80;;;2.45;;
45806;SDS011;31507;51.494;7.518;2022-07-24T12:45:38;4.13;;;2.40;;
45806;SDS011;31507;51.494;7.518;2022-07-24T12:48:08;4.30;;;2.55;;
45806;SDS011;31507;51.494;7.518;2022-07-24T12:53:30;3.20;;;2.90;;
45806;SDS011;31507;51.494;7.518;2022-07-24T12:56:00;2.97;;;2.50;;
45806;SDS011;31507;51.494;7.518;2022-07-24T13:01:47;5.07;;;3.03;;
45806;SDS011;31507;51.494;7.518;2022-07-24T13:04:15;6.10;;;2.63;;
45806;SDS011;31507;51.494;7.518;2022-07-24T13:06:43;7.53;;;3.00;;
45806;SDS011;31507;51.494;7.518;2022-07-24T13:09:12;3.38;;;2.85;;
45806;SDS011;31507;51.494;7.518;2022-07-24T13:11:39;4.50;;;2.90;;
45806;SDS011;31507;51.494;7.518;2022-07-24T13:14:07;3.20;;;2.90;;
45806;SDS011;31507;51.494;7.518;2022-07-24T13:16:35;5.00;;;2.83;;
45806;SDS011;31507;51.494;7.518;2022-07-24T13:19:02;3.95;;;2.80;;
45806;SDS011;31507;51.494;7.518;2022-07-24T13:21:29;2.55;;;2.35;;
45806;SDS011;31507;51.494;7.518;2022-07-24T13:23:55;3.35;;;2.85;;
45806;SDS011;31507;51.494;7.518;2022-07-24T13:26:22;4.82;;;2.97;;
45806;SDS011;31507;51.494;7.518;2022-07-24T13:28:47;3.45;;;2.70;;
45806;SDS011;31507;51.494;7.518;2022-07-24T13:31:13;3.60;;;2.92;;
45806;SDS011;31507;51.494;7.518;2022-07-24T13:33:39;3.95;;;2.60;;
45806;SDS011;31507;51.494;7.518;2022-07-24T13:36:05;5.38;;;2.92;;
45806;SDS011;31507;51.494;7.518;2022-07-24T13:38:32;7.82;;;3.10;;
45806;SDS011;31507;51.494;7.518;2022-07-24T13:40:57;2.78;;;2.50;;
45806;SDS011;31507;51.494;7.518;2022-07-24T13:43:23;3.10;;;2.65;;
45806;SDS011;31507;51.494;7.518;2022-07-24T13:45:50;2.50;;;2.30;;
45806;SDS011;31507;51.494;7.518;2022-07-24T13:48:16;3.67;;;2.47;;
45806;SDS011;31507;51.494;7.518;2022-07-24T13:50:42;4.53;;;2.72;;
45806;SDS011;31507;51.494;7.518;2022-07-24T13:53:08;4.68;;;2.45;;
45806;SDS011;31507;51.494;7.518;2022-07-24T13:55:34;2.50;;;2.30;;
45806;SDS011;31507;51.494;7.518;2022-07-24T13:57:59;3.15;;;2.50;;
45806;SDS011;31507;51.494;7.518;2022-07-24T14:00:25;8.50;;;2.60;;
45806;SDS011;31507;51.494;7.518;2022-07-24T14:02:51;3.45;;;2.70;;
45806;SDS011;31507;51.494;7.518;2022-07-24T14:05:23;3.00;;;2.60;;
45806;SDS011;31507;51.494;7.518;2022-07-24T14:07:49;2.83;;;2.35;;
45806;SDS011;31507;51.494;7.518;2022-07-24T14:10:15;2.65;;;2.45;;
45806;SDS011;31507;51.494;7.518;2022-07-24T14:12:41;3.75;;;2.42;;
45806;SDS011;31507;51.494;7.518;2022-07-24T14:15:06;4.20;;;2.47;;
45806;SDS011;31507;51.494;7.518;2022-07-24T14:17:37;2.80;;;2.60;;
45806;SDS011;31507;51.494;7.518;2022-07-24T14:20:04;4.57;;;2.50;;
45806;SDS011;31507;51.494;7.518;2022-07-24T14:22:32;5.63;;;2.58;;
45806;SDS011;31507;51.494;7.518;2022-07-24T14:25:02;8.93;;;2.97;;
45806;SDS011;31507;51.494;7.518;2022-07-24T14:27:28;4.35;;;2.50;;
45806;SDS011;31507;51.494;7.518;2022-07-24T14:29:54;4.55;;;2.95;;
45806;SDS011;31507;51.494;7.518;2022-07-24T14:32:19;4.72;;;2.20;;
45806;SDS011;31507;51.494;7.518;2022-07-24T14:34:45;3.30;;;2.47;;
45806;SDS011;31507;51.494;7.518;2022-07-24T14:37:11;4.43;;;2.30;;
45806;SDS011;31507;51.494;7.518;2022-07-24T14:39:37;2.72;;;2.40;;
45806;SDS011;31507;51.494;7.518;2022-07-24T14:42:03;6.55;;;3.00;;
45806;SDS011;31507;51.494;7.518;2022-07-24T14:44:29;5.07;;;3.22;;
45806;SDS011;31507;51.494;7.518;2022-07-24T14:46:55;7.07;;;3.67;;
45806;SDS011;31507;51.494;7.518;2022-07-24T14:49:21;3.97;;;2.70;;
45806;SDS011;31507;51.494;7.518;2022-07-24T14:51:47;3.60;;;2.58;;
45806;SDS011;31507;51.494;7.518;2022-07-24T14:54:13;4.13;;;2.60;;
45806;SDS011;31507;51.494;7.518;2022-07-24T14:56:38;6.32;;;2.50;;
45806;SDS011;31507;51.494;7.518;2022-07-24T14:59:05;4.93;;;2.60;;
45806;SDS011;31507;51.494;7.518;2022-07-24T15:01:33;3.75;;;2.42;;
45806;SDS011;31507;51.494;7.518;2022-07-24T15:03:59;7.85;;;2.47;;
45806;SDS011;31507;51.494;7.518;2022-07-24T15:06:26;3.58;;;2.40;;
45806;SDS011;31507;51.494;7.518;2022-07-24T15:08:52;2.90;;;2.50;;
45806;SDS011;31507;51.494;7.518;2022-07-24T15:11:18;3.92;;;2.58;;
45806;SDS011;31507;51.494;7.518;2022-07-24T15:13:46;4.70;;;2.40;;
45806;SDS011;31507;51.494;7.518;2022-07-24T15:16:12;3.30;;;2.47;;
45806;SDS011;31507;51.494;7.518;2022-07-24T15:18:38;4.65;;;2.35;;
45806;SDS011;31507;51.494;7.518;2022-07-24T15:21:03;4.15;;;2.60;;
45806;SDS011;31507;51.494;7.518;2022-07-24T15:23:29;8.13;;;2.45;;
45806;SDS011;31507;51.494;7.518;2022-07-24T15:25:55;2.72;;;2.50;;
45806;SDS011;31507;51.494;7.518;2022-07-24T15:28:21;3.95;;;2.63;;
45806;SDS011;31507;51.494;7.518;2022-07-24T15:30:46;3.47;;;2.40;;
45806;SDS011;31507;51.494;7.518;2022-07-24T15:33:12;3.67;;;3.13;;
45806;SDS011;31507;51.494;7.518;2022-07-24T15:35:37;2.75;;;2.55;;
45806;SDS011;31507;51.494;7.518;2022-07-24T15:38:03;5.15;;;2.53;;
45806;SDS011;31507;51.494;7.518;2022-07-24T15:40:29;5.10;;;2.47;;